Time;durP1;ratioP1;P1;durP2;ratioP2;P2;SDS_P1;SDS_P2;PMS_P1;PMS_P2;Temp;Humidity;BMP_temperature;BMP_pressure;BME280_temperature;BME280_humidity;BME280_pressure;Samples;Min_cycle;Max_cycle;Signal;HPM_P1;HPM_P2
2022/12/04 00:02:24;;;;;;;52.13;19.40;;;;;;;5.58;100.00;101687.75;5015976;28;20046;-51
2022/12/04 00:04:49;;;;;;;86.82;30.42;;;;;;;5.35;100.00;101695.13;5015711;28;20045;-49
2022/12/04 00:07:15;;;;;;;76.70;27.93;;;;;;;5.38;100.00;101694.03;5015483;28;20034;-52
2022/12/04 00:09:40;;;;;;;93.70;28.33;;;;;;;5.52;100.00;101688.28;5015353;28;20073;-52
2022/12/04 00:12:06;;;;;;;85.90;28.63;;;;;;;5.45;100.00;101692.47;5015363;28;20046;-50
2022/12/04 00:14:31;;;;;;;91.10;30.92;;;;;;;5.63;100.00;101683.81;5015432;28;20026;-51
2022/12/04 00:16:57;;;;;;;83.07;29.10;;;;;;;5.73;100.00;101692.59;5015090;28;20038;-50
2022/12/04 00:19:22;;;;;;;90.83;31.20;;;;;;;5.81;100.00;101687.41;5015258;28;20030;-54
2022/12/04 00:21:49;;;;;;;92.73;30.07;;;;;;;5.85;100.00;101680.84;5015113;28;20132;-53
2022/12/04 00:24:15;;;;;;;89.28;32.58;;;;;;;5.82;100.00;101683.78;5015062;28;20279;-53
2022/12/04 00:26:40;;;;;;;90.68;31.48;;;;;;;5.76;100.00;101683.50;5014656;28;20106;-48
2022/12/04 00:29:06;;;;;;;80.37;29.07;;;;;;;5.84;100.00;101676.50;5015004;28;20077;-53
2022/12/04 00:31:31;;;;;;;83.93;28.93;;;;;;;5.79;100.00;101678.75;5014850;28;20094;-54
2022/12/04 00:33:57;;;;;;;71.18;24.17;;;;;;;5.85;100.00;101672.03;5014949;28;20106;-49
2022/12/04 00:36:25;;;;;;;86.68;28.55;;;;;;;5.80;100.00;101667.16;5014525;28;20041;-50
2022/12/04 00:38:51;;;;;;;78.55;27.63;;;;;;;5.69;100.00;101668.16;5015088;28;20050;-50
2022/12/04 00:41:20;;;;;;;87.15;28.05;;;;;;;5.80;100.00;101672.47;5014297;28;20038;-49
2022/12/04 00:43:45;;;;;;;87.55;29.73;;;;;;;5.73;100.00;101676.66;5014437;28;20054;-54
2022/12/04 00:46:12;;;;;;;90.97;30.90;;;;;;;5.66;100.00;101675.56;5014593;28;20042;-50
2022/12/04 00:48:38;;;;;;;93.07;29.13;;;;;;;5.72;100.00;101673.19;5015072;28;20034;-56
2022/12/04 00:51:07;;;;;;;83.15;28.63;;;;;;;5.67;100.00;101669.28;5014142;28;20081;-50
2022/12/04 00:53:32;;;;;;;83.72;28.45;;;;;;;5.72;100.00;101667.03;5014153;28;20088;-53
2022/12/04 00:56:01;;;;;;;76.33;25.97;;;;;;;5.68;100.00;101671.81;5013958;28;20057;-50
2022/12/04 00:58:27;;;;;;;87.28;30.55;;;;;;;5.91;100.00;101667.97;5014745;28;20271;-48
2022/12/04 01:01:00;;;;;;;84.75;28.63;;;;;;;5.84;100.00;101665.03;5013950;28;20030;-52
2022/12/04 01:03:26;;;;;;;83.93;29.15;;;;;;;5.76;100.00;101668.41;5014115;28;20081;-53
2022/12/04 01:05:51;;;;;;;85.85;28.48;;;;;;;5.91;100.00;101665.31;5014646;28;20038;-53
2022/12/04 01:08:17;;;;;;;85.47;29.03;;;;;;;5.84;100.00;101667.69;5014372;28;20034;-52
2022/12/04 01:10:42;;;;;;;78.17;28.73;;;;;;;6.02;100.00;101675.81;5013199;28;20279;-53
2022/12/04 01:13:08;;;;;;;81.33;27.57;;;;;;;5.99;100.00;101678.69;5013645;28;20077;-51
2022/12/04 01:15:38;;;;;;;86.50;30.17;;;;;;;5.99;100.00;101674.22;5014392;28;20291;-53
2022/12/04 01:18:03;;;;;;;76.28;27.60;;;;;;;5.72;100.00;101673.19;5014339;28;20101;-53
2022/12/04 01:20:29;;;;;;;55.83;22.25;;;;;;;5.79;100.00;101668.16;5012584;28;20077;-51
2022/12/04 01:22:55;;;;;;;82.47;29.80;;;;;;;5.83;100.00;101672.19;5013661;28;20034;-50
2022/12/04 01:25:20;;;;;;;82.10;29.10;;;;;;;5.63;100.00;101660.75;5013829;28;20034;-51
2022/12/04 01:27:46;;;;;;;83.30;29.08;;;;;;;5.78;100.00;101671.78;5013160;28;20034;-51
2022/12/04 01:30:12;;;;;;;86.30;30.63;;;;;;;5.91;100.00;101681.25;5013687;28;20042;-52
2022/12/04 01:32:37;;;;;;;83.83;30.53;;;;;;;5.81;100.00;101671.50;4996847;28;20045;-51
2022/12/04 01:35:03;;;;;;;81.53;28.73;;;;;;;5.82;100.00;101672.31;5013331;28;20038;-52
2022/12/04 01:37:31;;;;;;;88.00;31.17;;;;;;;5.91;100.00;101670.63;5012529;28;20066;-52
2022/12/04 01:39:57;;;;;;;86.45;29.85;;;;;;;5.81;100.00;101671.50;5009443;28;20094;-49
2022/12/04 01:42:23;;;;;;;84.78;29.42;;;;;;;5.86;100.00;101674.56;5012708;28;20090;-51
2022/12/04 01:45:26;;;;;;;85.17;30.73;;;;;;;5.78;100.00;101674.44;5013112;28;20046;-52
2022/12/04 01:48:00;;;;;;;76.43;27.02;;;;;;;5.73;100.00;101674.00;5010783;28;20061;-51
2022/12/04 01:50:27;;;;;;;86.78;29.00;;;;;;;5.82;100.00;101670.50;5013645;28;20110;-51
2022/12/04 01:52:54;;;;;;;83.20;28.60;;;;;;;5.88;100.00;101669.94;5010363;28;20034;-50
2022/12/04 01:55:20;;;;;;;78.72;28.88;;;;;;;5.82;100.00;101667.84;5013388;28;20030;-55
2022/12/04 01:57:45;;;;;;;83.97;28.63;;;;;;;5.87;100.00;101670.91;5013140;28;20073;-54
2022/12/04 02:00:15;;;;;;;84.93;28.20;;;;;;;5.92;100.00;101670.50;5012810;28;20118;-53
2022/12/04 02:02:43;;;;;;;86.25;29.95;;;;;;;5.89;100.00;101663.63;5012887;28;20038;-50
2022/12/04 02:05:13;;;;;;;72.43;27.52;;;;;;;5.93;100.00;101663.34;5011081;28;20034;-53
2022/12/04 02:07:39;;;;;;;78.00;28.88;;;;;;;5.81;100.00;101660.88;5012730;28;20098;-49
2022/12/04 02:10:07;;;;;;;75.13;28.27;;;;;;;5.82;100.00;101657.25;5013215;28;20045;-51
2022/12/04 02:13:00;;;;;;;78.38;27.45;;;;;;;5.97;100.00;101665.56;5013265;28;20077;-50
2022/12/04 02:15:44;;;;;;;85.95;29.48;;;;;;;5.57;100.00;101662.19;4995197;28;20077;-52
2022/12/04 02:18:32;;;;;;;88.32;30.00;;;;;;;5.88;100.00;101672.59;5012578;28;20042;-48
2022/12/04 02:21:03;;;;;;;;;;;;;;;5.83;100.00;101674.84;5013590;28;20041;-53
2022/12/04 02:24:04;;;;;;;73.90;27.05;;;;;;;5.84;100.00;101673.84;5016341;28;19922;-52
2022/12/04 02:26:39;;;;;;;74.25;26.90;;;;;;;5.82;100.00;101672.31;4975494;28;20034;-53
2022/12/04 02:29:10;;;;;;;84.45;29.27;;;;;;;5.84;100.00;101675.66;5015782;28;20729;-49
2022/12/04 02:31:47;;;;;;;76.22;29.52;;;;;;;5.99;100.00;101668.91;5014171;28;20086;-51
2022/12/04 02:34:20;;;;;;;82.15;28.85;;;;;;;5.95;100.00;101672.84;5013712;28;20026;-52
2022/12/04 02:36:52;;;;;;;91.40;30.30;;;;;;;5.76;100.00;101668.41;5016254;28;20034;-50
2022/12/04 02:39:26;;;;;;;88.82;30.88;;;;;;;5.72;100.00;101661.72;5016619;28;20046;-50
2022/12/04 02:42:13;;;;;;;81.57;30.67;;;;;;;5.74;100.00;101663.25;5017341;28;20043;-54
2022/12/04 02:44:48;;;;;;;91.88;29.55;;;;;;;5.82;100.00;101657.25;5015284;28;20034;-54
2022/12/04 02:47:18;;;;;;;90.43;31.13;;;;;;;5.65;100.00;101648.22;5016871;28;20034;-52
2022/12/04 02:49:49;;;;;;;82.93;30.63;;;;;;;5.71;100.00;101644.97;5016942;28;20034;-54
2022/12/04 02:52:20;;;;;;;79.10;29.40;;;;;;;5.80;100.00;101645.94;5017386;28;20041;-51
2022/12/04 02:54:53;;;;;;;80.93;29.25;;;;;;;5.73;100.00;101639.50;5017219;28;20057;-54
2022/12/04 02:57:24;;;;;;;76.93;30.08;;;;;;;5.62;100.00;101645.81;5017040;28;20095;-50
2022/12/04 02:59:52;;;;;;;72.43;28.13;;;;;;;5.80;100.00;101635.31;5014739;28;20042;-52
2022/12/04 03:02:29;;;;;;;85.13;29.67;;;;;;;5.71;100.00;101644.97;5017009;28;20102;-56
2022/12/04 03:04:58;;;;;;;79.75;27.40;;;;;;;5.52;100.00;101635.22;5015904;28;20098;-54
2022/12/04 03:07:32;;;;;;;85.85;29.70;;;;;;;5.70;100.00;101634.47;5016576;28;20049;-50
2022/12/04 03:10:07;;;;;;;84.63;27.75;;;;;;;5.72;100.00;101638.69;5015480;28;20065;-54
2022/12/04 03:12:56;;;;;;;71.53;28.77;;;;;;;5.66;100.00;101635.75;5016795;28;20145;-55
2022/12/04 03:15:28;;;;;;;81.65;29.42;;;;;;;5.62;100.00;101623.75;4998060;28;20026;-52
2022/12/04 03:18:10;;;;;;;77.68;27.30;;;;;;;5.39;100.00;101624.06;5016669;28;20049;-53
2022/12/04 03:20:37;;;;;;;79.32;28.42;;;;;;;5.68;100.00;101621.38;5016109;28;20030;-52
2022/12/04 03:23:25;;;;;;;83.65;30.73;;;;;;;5.44;100.00;101621.84;5016726;28;20034;-50
2022/12/04 03:26:01;;;;;;;81.57;28.33;;;;;;;5.64;100.00;101622.63;5016702;28;20038;-48
2022/12/04 03:28:36;;;;;;;86.88;28.58;;;;;;;5.59;100.00;101620.41;5014526;28;20034;-50
2022/12/04 03:31:06;;;;;;;82.18;29.92;;;;;;;5.56;100.00;101625.16;5016480;28;20038;-52
2022/12/04 03:33:43;;;;;;;81.25;28.77;;;;;;;5.62;100.00;101618.44;5015311;28;20042;-49
2022/12/04 03:36:17;;;;;;;80.53;27.88;;;;;;;5.59;100.00;101619.56;5015677;28;20038;-51
2022/12/04 03:39:02;;;;;;;73.63;27.48;;;;;;;5.57;100.00;101632.13;5016362;28;20034;-50
2022/12/04 03:41:38;;;;;;;82.18;30.27;;;;;;;5.73;100.00;101626.22;5016419;28;20034;-51
2022/12/04 03:44:16;;;;;;;77.68;27.48;;;;;;;5.80;100.00;101637.13;5014876;28;20043;-53
2022/12/04 03:46:52;;;;;;;77.93;27.02;;;;;;;5.99;100.00;101630.91;5016256;28;20042;-55
2022/12/04 03:49:24;;;;;;;82.75;28.15;;;;;;;5.85;100.00;101638.38;5014147;28;20034;-53
2022/12/04 03:52:09;;;;;;;80.70;27.67;;;;;;;5.86;100.00;101632.06;5014601;28;20057;-49
2022/12/04 03:55:10;;;;;;;81.85;27.92;;;;;;;5.83;100.00;101631.50;5014974;28;20041;-51
2022/12/04 03:57:42;;;;;;;78.93;28.15;;;;;;;5.68;100.00;101634.66;5006014;28;20050;-50
2022/12/04 04:00:16;;;;;;;76.72;26.70;;;;;;;5.81;100.00;101634.34;5016079;28;20121;-56
2022/12/04 04:02:47;;;;;;;88.20;30.83;;;;;;;6.02;100.00;101628.81;5015818;28;20048;-51
2022/12/04 04:05:14;;;;;;;76.40;28.50;;;;;;;5.82;100.00;101633.34;5016003;28;20041;-53
2022/12/04 04:07:48;;;;;;;82.82;28.58;;;;;;;5.71;100.00;101630.84;5015949;28;20039;-54
2022/12/04 04:10:17;;;;;;;83.68;30.48;;;;;;;5.41;100.00;101614.16;5015603;28;20034;-55
2022/12/04 04:24:13;;;;;;;83.38;29.33;;;;;;;5.36;100.00;101614.56;5013731;28;20053;-52
2022/12/04 04:24:13;;;;;;;98.80;33.22;;;;;;;5.62;100.00;101626.41;5014934;28;20022;-48
2022/12/04 04:26:43;;;;;;;81.18;29.65;;;;;;;5.59;100.00;101631.03;5014298;28;20069;-52
2022/12/04 04:29:09;;;;;;;88.20;29.13;;;;;;;5.79;100.00;101622.16;5014280;28;20053;-51
2022/12/04 04:31:41;;;;;;;85.70;29.10;;;;;;;5.85;100.00;101619.78;5015607;28;20057;-52
2022/12/04 04:34:22;;;;;;;84.90;31.33;;;;;;;5.63;100.00;101625.44;5014923;28;20045;-53
2022/12/04 04:37:01;;;;;;;91.30;30.90;;;;;;;5.62;100.00;101621.09;5014179;28;20035;-50
2022/12/04 04:39:32;;;;;;;91.20;31.88;;;;;;;5.63;100.00;101626.25;5015181;28;20049;-53
2022/12/04 04:42:11;;;;;;;94.22;32.85;;;;;;;5.62;100.00;101621.94;5015071;28;20040;-52
2022/12/04 04:44:45;;;;;;;86.45;32.28;;;;;;;5.53;100.00;101622.78;5013431;28;20030;-49
2022/12/04 04:47:19;;;;;;;92.13;32.50;;;;;;;5.60;100.00;101616.78;5015039;28;20065;-50
2022/12/04 04:49:48;;;;;;;86.57;30.25;;;;;;;5.58;100.00;101625.84;5014208;28;20062;-56
2022/12/04 04:52:18;;;;;;;72.07;31.00;;;;;;;5.59;100.00;101623.06;5014857;28;20038;-49
2022/12/04 04:54:45;;;;;;;78.63;30.85;;;;;;;5.53;100.00;101618.31;5012553;28;20041;-52
2022/12/04 04:57:11;;;;;;;75.70;28.77;;;;;;;5.49;100.00;101613.44;5013763;28;20038;-51
2022/12/04 04:59:36;;;;;;;85.23;29.73;;;;;;;5.71;100.00;101625.53;5014830;28;20034;-51
2022/12/04 05:02:03;;;;;;;85.80;30.33;;;;;;;5.68;100.00;101617.88;5014630;28;20038;-53
2022/12/04 05:04:28;;;;;;;74.25;28.75;;;;;;;5.61;100.00;101617.59;4997566;28;20081;-51
2022/12/04 05:06:53;;;;;;;82.97;31.27;;;;;;;5.58;100.00;101618.75;5014814;28;20464;-47
2022/12/04 05:09:19;;;;;;;56.50;21.60;;;;;;;5.59;100.00;101619.56;5014869;28;20054;-50
2022/12/04 05:11:45;;;;;;;84.65;29.50;;;;;;;5.69;100.00;101616.88;5014664;28;20045;-50
2022/12/04 05:14:10;;;;;;;79.40;29.77;;;;;;;5.74;100.00;101618.13;5014600;28;20038;-54
2022/12/04 05:16:38;;;;;;;74.00;27.27;;;;;;;5.35;100.00;101620.88;5014454;28;20034;-52
2022/12/04 05:21:47;;;;;;;84.75;28.40;;;;;;;5.69;100.00;101627.50;5014580;28;20130;-54
2022/12/04 05:24:13;;;;;;;82.65;30.20;;;;;;;5.86;100.00;101636.53;5013339;28;20030;-49
2022/12/04 05:26:38;;;;;;;77.73;27.83;;;;;;;5.72;100.00;101630.72;5013913;28;20065;-51
2022/12/04 05:29:04;;;;;;;82.47;29.23;;;;;;;5.68;100.00;101633.78;5011014;28;20081;-54
2022/12/04 05:31:29;;;;;;;78.23;30.40;;;;;;;5.94;100.00;101633.16;5000576;28;20039;-52
2022/12/04 05:33:55;;;;;;;79.50;30.53;;;;;;;6.03;100.00;101640.31;4998572;28;20062;-52
2022/12/04 05:36:20;;;;;;;82.70;28.50;;;;;;;6.03;100.00;101637.66;5001045;28;20053;-50
2022/12/04 05:38:46;;;;;;;64.25;21.27;;;;;;;5.82;100.00;101638.66;4997526;28;20047;-54
2022/12/04 05:41:11;;;;;;;87.13;29.43;;;;;;;5.76;100.00;101641.03;4997197;28;20065;-51
2022/12/04 05:43:37;;;;;;;73.65;26.67;;;;;;;5.82;100.00;101640.47;4999276;28;20039;-54
2022/12/04 05:46:05;;;;;;;77.93;28.73;;;;;;;5.89;100.00;101639.75;5001900;28;20046;-54
2022/12/04 05:48:31;;;;;;;78.80;28.10;;;;;;;5.90;100.00;101632.63;5003959;28;20276;-49
2022/12/04 05:50:57;;;;;;;75.20;27.90;;;;;;;5.84;100.00;101634.03;4998908;28;20045;-52
2022/12/04 05:53:22;;;;;;;77.57;27.53;;;;;;;6.07;100.00;101631.06;4999703;28;20026;-55
2022/12/04 05:55:56;;;;;;;90.28;29.75;;;;;;;6.01;100.00;101634.31;5002165;28;20058;-54
2022/12/04 05:58:22;;;;;;;75.32;28.55;;;;;;;6.00;100.00;101621.97;4997063;28;20079;-53
2022/12/04 06:00:47;;;;;;;82.55;27.80;;;;;;;6.10;100.00;101627.25;5001476;28;20050;-57
2022/12/04 06:03:13;;;;;;;76.07;27.97;;;;;;;6.11;100.00;101624.47;5000210;28;20040;-52
2022/12/04 06:05:38;;;;;;;77.07;28.23;;;;;;;5.81;100.00;101623.72;4998158;28;20291;-56
2022/12/04 06:08:03;;;;;;;78.53;27.03;;;;;;;5.87;100.00;101627.59;4983339;28;20047;-54
2022/12/04 06:10:29;;;;;;;72.97;27.83;;;;;;;6.01;100.00;101624.50;5004033;28;20097;-51
2022/12/04 06:12:56;;;;;;;75.23;28.40;;;;;;;5.94;100.00;101625.19;4999932;28;20030;-49
2022/12/04 06:15:23;;;;;;;72.97;27.60;;;;;;;6.02;100.00;101620.03;4983024;28;20023;-51
2022/12/04 06:17:48;;;;;;;77.80;28.67;;;;;;;5.97;100.00;101622.25;4997817;28;20034;-54
2022/12/04 06:20:15;;;;;;;74.80;27.58;;;;;;;5.95;100.00;101624.22;5000617;28;20124;-52
2022/12/04 06:22:40;;;;;;;78.40;27.27;;;;;;;6.05;100.00;101624.19;4999698;28;20031;-51
2022/12/04 06:25:07;;;;;;;73.97;27.03;;;;;;;5.93;100.00;101626.19;4995733;28;20039;-52
2022/12/04 06:27:34;;;;;;;71.07;24.13;;;;;;;6.07;100.00;101623.09;5000551;28;20037;-52
2022/12/04 06:29:59;;;;;;;78.47;29.02;;;;;;;6.14;100.00;101620.69;5011317;28;20315;-55
2022/12/04 06:32:25;;;;;;;75.25;26.83;;;;;;;6.26;100.00;101619.50;5018884;28;20030;-54
2022/12/04 06:34:54;;;;;;;61.67;20.87;;;;;;;6.31;100.00;101627.03;5016110;28;20034;-50
2022/12/04 06:37:21;;;;;;;71.20;26.23;;;;;;;6.57;100.00;101621.88;5005099;28;20077;-51
2022/12/04 06:39:46;;;;;;;74.03;26.73;;;;;;;6.35;100.00;101625.75;5019563;28;20093;-53
2022/12/04 06:42:12;;;;;;;76.97;27.13;;;;;;;6.43;100.00;101628.50;5001595;28;20065;-53
2022/12/04 06:44:38;;;;;;;75.28;28.08;;;;;;;6.86;100.00;101622.63;5020594;28;20050;-53
2022/12/04 06:47:04;;;;;;;78.73;29.13;;;;;;;6.57;100.00;101628.97;5022086;28;20058;-53
2022/12/04 06:49:29;;;;;;;54.60;22.00;;;;;;;6.26;100.00;101624.00;5003081;28;20034;-50
2022/12/04 06:51:54;;;;;;;56.40;21.27;;;;;;;6.16;100.00;101627.50;5016087;28;20054;-54
2022/12/04 06:54:20;;;;;;;71.57;25.90;;;;;;;6.21;100.00;101634.19;5018675;28;20033;-53
2022/12/04 06:56:48;;;;;;;69.50;25.53;;;;;;;6.28;100.00;101641.44;5003700;28;20095;-50
2022/12/04 06:59:13;;;;;;;68.82;25.80;;;;;;;6.15;100.00;101633.81;5018029;28;20276;-50
2022/12/04 07:01:38;;;;;;;65.70;25.00;;;;;;;6.12;100.00;101633.28;5018181;28;20117;-53
2022/12/04 07:04:04;;;;;;;63.37;24.83;;;;;;;6.28;100.00;101636.13;5015377;28;20042;-54
2022/12/04 07:06:35;;;;;;;73.43;26.67;;;;;;;6.27;100.00;101633.63;5018791;28;20090;-54
2022/12/04 07:09:08;;;;;;;77.32;27.05;;;;;;;6.32;100.00;101636.69;5018724;28;20130;-49
2022/12/04 07:11:34;;;;;;;65.97;24.98;;;;;;;6.15;100.00;101635.63;5020948;28;20057;-52
2022/12/04 07:13:59;;;;;;;72.97;26.87;;;;;;;6.30;100.00;101639.47;5026330;28;20093;-50
2022/12/04 07:16:26;;;;;;;71.80;25.63;;;;;;;6.19;100.00;101641.47;5025236;28;20298;-52
2022/12/04 07:18:55;;;;;;;73.03;25.92;;;;;;;5.82;100.00;101635.16;5023561;28;20283;-53
2022/12/04 07:21:23;;;;;;;69.57;25.80;;;;;;;6.03;100.00;101638.47;5027270;28;20053;-51
2022/12/04 07:23:51;;;;;;;72.10;26.73;;;;;;;5.99;100.00;101641.50;5004500;28;20041;-51
2022/12/04 07:26:18;;;;;;;63.53;24.80;;;;;;;6.05;100.00;101635.69;5022807;28;20038;-54
2022/12/04 07:28:44;;;;;;;67.07;25.15;;;;;;;6.17;100.00;101638.97;5019500;28;20042;-52
2022/12/04 07:31:12;;;;;;;78.05;28.42;;;;;;;5.93;100.00;101642.09;5016292;28;20099;-50
2022/12/04 07:33:39;;;;;;;62.40;24.10;;;;;;;6.07;100.00;101647.00;5015826;28;20046;-51
2022/12/04 07:36:06;;;;;;;61.58;24.30;;;;;;;6.01;100.00;101644.91;5016019;28;20030;-48
2022/12/04 07:38:36;;;;;;;70.60;25.67;;;;;;;6.00;100.00;101652.00;5015488;28;20041;-52
2022/12/04 07:41:04;;;;;;;71.72;25.98;;;;;;;6.28;100.00;101659.22;5015661;28;20053;-53
2022/12/04 07:43:30;;;;;;;69.57;25.20;;;;;;;6.07;100.00;101654.09;5015699;28;20042;-51
2022/12/04 07:45:57;;;;;;;68.22;25.15;;;;;;;5.88;100.00;101653.16;5015565;28;20026;-50
2022/12/04 07:48:22;;;;;;;66.13;26.77;;;;;;;5.99;100.00;101654.78;5015961;28;20057;-50
2022/12/04 07:50:48;;;;;;;57.38;23.58;;;;;;;6.11;100.00;101651.03;5015795;28;20035;-49
2022/12/04 07:53:14;;;;;;;64.77;24.10;;;;;;;6.15;100.00;101655.06;5015844;28;20030;-48
2022/12/04 07:55:40;;;;;;;72.72;24.77;;;;;;;6.11;100.00;101656.34;5015530;28;20271;-52
2022/12/04 07:58:06;;;;;;;64.68;21.95;;;;;;;6.11;100.00;101645.72;5015225;28;20030;-53
2022/12/04 08:00:31;;;;;;;70.30;26.03;;;;;;;5.97;100.00;101648.78;5015072;28;20043;-51
2022/12/04 08:02:57;;;;;;;66.97;23.35;;;;;;;6.20;100.00;101646.66;5015184;28;20030;-50
2022/12/04 08:05:23;;;;;;;73.40;26.83;;;;;;;6.11;100.00;101651.03;5015528;28;20081;-53
2022/12/04 08:07:48;;;;;;;66.05;25.40;;;;;;;6.07;100.00;101654.97;5015155;28;20093;-53
2022/12/04 08:10:14;;;;;;;61.47;23.93;;;;;;;6.10;100.00;101659.13;5014955;28;20034;-48
2022/12/04 08:12:39;;;;;;;61.83;23.83;;;;;;;6.04;100.00;101657.91;5015398;28;20102;-55
2022/12/04 08:15:06;;;;;;;69.73;27.40;;;;;;;5.98;100.00;101658.44;5013367;28;20037;-56
2022/12/04 08:17:32;;;;;;;64.05;23.33;;;;;;;5.99;100.00;101673.38;5015121;28;20094;-49
2022/12/04 08:19:57;;;;;;;66.13;24.25;;;;;;;6.08;100.00;101669.06;5013842;28;20042;-54
2022/12/04 08:22:23;;;;;;;60.67;22.50;;;;;;;5.83;100.00;101660.72;5012734;28;20030;-54
2022/12/04 08:24:49;;;;;;;59.80;22.95;;;;;;;6.00;100.00;101670.59;5014556;28;20288;-53
2022/12/04 08:27:14;;;;;;;62.77;24.77;;;;;;;6.07;100.00;101670.88;5014873;28;20062;-52
2022/12/04 08:29:40;;;;;;;63.93;21.83;;;;;;;5.92;100.00;101675.81;5015065;28;20055;-49
2022/12/04 08:32:06;;;;;;;62.73;24.27;;;;;;;6.06;100.00;101677.19;5014864;28;20061;-54
2022/12/04 08:34:31;;;;;;;56.20;19.00;;;;;;;6.03;100.00;101677.47;5014672;28;20058;-53
2022/12/04 08:36:57;;;;;;;49.17;19.20;;;;;;;6.14;100.00;101677.28;4982045;28;20038;-52
2022/12/04 08:39:22;;;;;;;61.35;22.90;;;;;;;6.15;100.00;101686.94;5014541;28;20037;-52
2022/12/04 08:41:48;;;;;;;62.00;22.40;;;;;;;6.15;100.00;101689.59;5014178;28;20042;-51
2022/12/04 08:44:13;;;;;;;60.80;22.57;;;;;;;6.20;100.00;101685.66;5014399;28;20287;-49
2022/12/04 08:46:38;;;;;;;60.60;24.27;;;;;;;6.31;100.00;101690.78;5014796;28;20121;-51
2022/12/04 08:49:04;;;;;;;62.93;23.73;;;;;;;6.44;100.00;101688.63;5014687;28;20038;-53
2022/12/04 08:51:33;;;;;;;68.82;25.48;;;;;;;6.26;100.00;101688.56;5013901;28;20030;-53
2022/12/04 08:54:05;;;;;;;67.78;24.45;;;;;;;6.33;100.00;101691.47;5008981;28;20038;-52
2022/12/04 08:56:32;;;;;;;62.20;22.77;;;;;;;6.24;100.00;101692.38;5011737;28;20061;-52
2022/12/04 08:58:59;;;;;;;59.28;22.60;;;;;;;6.38;100.00;101688.41;5013155;28;20034;-54
2022/12/04 09:01:25;;;;;;;65.05;24.88;;;;;;;6.44;100.00;101683.31;4994826;28;20113;-51
2022/12/04 09:03:51;;;;;;;67.40;25.17;;;;;;;6.23;100.00;101683.53;5013321;28;20538;-51
2022/12/04 09:06:17;;;;;;;65.97;23.77;;;;;;;6.19;100.00;101673.34;5013052;28;20038;-51
2022/12/04 09:08:42;;;;;;;61.40;20.85;;;;;;;6.40;100.00;101681.94;5008610;28;20068;-56
2022/12/04 09:11:17;;;;;;;59.80;22.10;;;;;;;6.33;100.00;101675.53;5012856;28;20034;-55
2022/12/04 09:13:44;;;;;;;53.45;21.80;;;;;;;6.25;100.00;101673.59;5010137;28;20033;-55
2022/12/04 09:16:12;;;;;;;59.88;21.83;;;;;;;6.30;100.00;101673.19;5012612;28;20102;-55
2022/12/04 09:18:38;;;;;;;52.97;20.40;;;;;;;6.32;100.00;101671.22;5012365;28;20090;-54
2022/12/04 09:21:09;;;;;;;64.75;23.75;;;;;;;6.31;100.00;101672.19;5012303;28;20060;-55
2022/12/04 09:23:36;;;;;;;61.20;21.40;;;;;;;6.43;100.00;101663.03;5010209;28;20081;-54
2022/12/04 09:26:02;;;;;;;51.80;20.45;;;;;;;6.53;100.00;101672.78;5013115;28;20038;-53
2022/12/04 09:28:28;;;;;;;57.28;20.95;;;;;;;6.58;100.00;101678.50;5009338;28;20042;-56
2022/12/04 09:31:04;;;;;;;57.95;21.23;;;;;;;6.59;100.00;101675.69;5010354;28;20058;-54
2022/12/04 09:33:30;;;;;;;53.30;20.80;;;;;;;6.59;100.00;101670.38;5009982;28;20154;-53
2022/12/04 09:35:59;;;;;;;55.15;19.63;;;;;;;6.54;100.00;101677.13;5009655;28;20026;-55
2022/12/04 09:38:26;;;;;;;55.63;20.15;;;;;;;6.68;100.00;101687.25;5010669;28;20054;-55
2022/12/04 09:41:01;;;;;;;;;;;;;;;6.72;100.00;101675.34;5010406;28;20065;-54
2022/12/04 09:43:40;;;;;;;53.25;18.40;;;;;;;6.46;100.00;101691.16;5010971;28;19914;-57
2022/12/04 09:46:11;;;;;;;51.22;19.88;;;;;;;6.29;100.00;101682.13;5011169;28;20053;-55
2022/12/04 09:48:40;;;;;;;55.78;20.00;;;;;;;6.37;100.00;101684.06;5010623;28;20054;-49
2022/12/04 09:51:15;;;;;;;50.65;19.58;;;;;;;6.16;100.00;101672.66;5011249;28;20046;-52
2022/12/04 09:53:46;;;;;;;50.03;18.65;;;;;;;6.27;100.00;101681.44;4994729;28;20057;-54
2022/12/04 09:56:18;;;;;;;48.65;17.42;;;;;;;6.08;100.00;101677.03;5012053;28;20048;-48
2022/12/04 09:58:57;;;;;;;46.42;17.67;;;;;;;6.15;100.00;101684.28;5011482;28;20038;-54
2022/12/04 10:01:42;;;;;;;49.08;18.98;;;;;;;6.28;100.00;101683.13;5009084;28;20046;-53
2022/12/04 10:04:10;;;;;;;53.30;18.80;;;;;;;6.45;100.00;101679.66;5011139;28;20081;-52
2022/12/04 10:06:45;;;;;;;56.53;19.98;;;;;;;6.44;100.00;101688.63;5012482;28;20045;-54
2022/12/04 10:09:27;;;;;;;57.38;20.27;;;;;;;6.22;100.00;101681.03;5012881;28;20045;-50
2022/12/04 10:12:13;;;;;;;40.67;16.50;;;;;;;6.33;100.00;101680.84;5011874;28;20030;-51
2022/12/04 10:15:17;;;;;;;47.70;18.77;;;;;;;6.43;100.00;101676.31;5012151;28;20035;-51
2022/12/04 10:18:03;;;;;;;46.53;17.88;;;;;;;6.47;100.00;101678.72;5012434;28;20039;-50
2022/12/04 10:20:41;;;;;;;42.70;16.48;;;;;;;6.44;100.00;101669.19;5011209;28;20034;-52
2022/12/04 10:23:18;;;;;;;47.65;17.80;;;;;;;6.53;100.00;101675.44;5011322;28;20047;-52
2022/12/04 10:25:44;;;;;;;48.75;17.73;;;;;;;6.40;100.00;101681.94;5012467;28;20026;-49
2022/12/04 10:28:31;;;;;;;41.40;16.57;;;;;;;6.01;100.00;101679.44;5011687;28;20030;-55
2022/12/04 10:30:59;;;;;;;;;;;;;;;5.81;100.00;101673.28;5010148;28;20066;-52
2022/12/04 10:33:39;;;;;;;41.60;16.83;;;;;;;6.50;100.00;101673.91;5009041;28;19913;-54
2022/12/04 10:36:09;;;;;;;46.30;16.80;;;;;;;6.57;100.00;101682.13;5009453;28;20039;-54
2022/12/04 10:38:47;;;;;;;42.85;15.40;;;;;;;6.37;100.00;101676.91;5010413;28;20089;-54
2022/12/04 10:41:39;;;;;;;42.95;15.60;;;;;;;6.51;100.00;101680.09;5008476;28;20030;-54
2022/12/04 10:44:04;;;;;;;44.10;16.50;;;;;;;6.44;100.00;101679.81;5012742;28;20054;-52
2022/12/04 10:46:32;;;;;;;44.97;18.10;;;;;;;6.37;100.00;101671.59;5012042;28;20060;-55
2022/12/04 10:49:01;;;;;;;43.08;16.23;;;;;;;6.41;100.00;101662.34;5014315;28;20061;-48
2022/12/04 10:51:33;;;;;;;45.67;17.48;;;;;;;6.45;100.00;101665.56;5015545;28;20045;-54
2022/12/04 10:53:59;;;;;;;43.90;17.08;;;;;;;6.40;100.00;101671.31;5013565;28;20022;-51
2022/12/04 10:56:25;;;;;;;50.63;18.13;;;;;;;6.48;100.00;101667.09;4998133;28;20037;-50
2022/12/04 10:59:01;;;;;;;44.10;15.50;;;;;;;6.41;100.00;101657.03;5014721;28;20031;-54
2022/12/04 11:01:29;;;;;;;42.70;15.55;;;;;;;6.36;100.00;101669.94;5014859;28;20082;-48
2022/12/04 11:04:01;;;;;;;37.80;14.45;;;;;;;6.51;100.00;101661.47;5012573;28;20038;-50
2022/12/04 11:06:28;;;;;;;38.70;14.77;;;;;;;6.28;100.00;101665.34;5013652;28;20034;-53
2022/12/04 11:08:56;;;;;;;39.08;16.02;;;;;;;6.52;100.00;101657.84;5014321;28;20069;-56
2022/12/04 11:11:23;;;;;;;;;;;;;;;6.34;100.00;101671.91;5014548;28;20057;-53
2022/12/04 11:14:01;;;;;;;35.95;15.35;;;;;;;6.22;100.00;101663.28;5013421;28;19924;-52
2022/12/04 11:16:37;;;;;;;32.63;13.88;;;;;;;6.28;100.00;101672.50;5013281;28;20057;-48
2022/12/04 11:19:16;;;;;;;33.75;13.43;;;;;;;6.25;100.00;101664.81;5012711;28;20034;-48
2022/12/04 11:21:42;;;;;;;34.03;13.35;;;;;;;6.44;100.00;101662.03;5012760;28;20098;-49
2022/12/04 11:24:18;;;;;;;30.00;13.45;;;;;;;6.34;100.00;101652.44;5014227;28;20042;-54
2022/12/04 11:26:46;;;;;;;42.38;15.30;;;;;;;6.29;100.00;101644.94;5011715;28;20050;-49
2022/12/04 11:29:16;;;;;;;33.38;14.35;;;;;;;6.44;100.00;101624.84;5013890;28;20114;-50
2022/12/04 11:31:48;;;;;;;38.97;16.60;;;;;;;6.52;100.00;101642.72;5014072;28;20069;-50
2022/12/04 11:34:18;;;;;;;35.72;15.20;;;;;;;6.30;100.00;101633.34;5015359;28;20078;-54